createdAt,value
2017-11-13T00:00:08.401Z,14.60
2017-11-13T00:05:43.112Z,14.80
2017-11-13T00:08:18.987Z,14.60
2017-11-13T00:10:49.863Z,15.60
2017-11-13T00:13:20.918Z,15.30
2017-11-13T00:15:54.394Z,14.70
2017-11-13T00:46:45.385Z,15.40
2017-11-13T01:01:44.757Z,15.10
2017-11-13T01:07:00.154Z,15.30
2017-11-13T01:09:32.322Z,14.40
2017-11-13T01:12:02.201Z,14.20
2017-11-13T01:14:30.440Z,14.50
2017-11-13T01:17:01.270Z,14.60
2017-11-13T01:19:31.434Z,15.10
2017-11-13T01:22:00.814Z,15.30
2017-11-13T01:24:33.745Z,14.90
2017-11-13T01:27:02.520Z,14.70
2017-11-13T01:29:32.263Z,15.00
2017-11-13T01:32:01.493Z,15.10
2017-11-13T01:34:29.278Z,15.00
2017-11-13T01:36:57.199Z,15.00
2017-11-13T01:39:29.757Z,14.80
2017-11-13T01:41:59.352Z,14.90
2017-11-13T01:47:09.817Z,14.60
2017-11-13T01:49:46.750Z,14.50
2017-11-13T01:52:58.160Z,14.70
2017-11-13T01:55:28.177Z,14.60
2017-11-13T02:03:41.484Z,14.90
2017-11-13T02:06:11.690Z,14.60
2017-11-13T02:08:40.756Z,15.30
2017-11-13T02:11:08.730Z,15.80
2017-11-13T02:13:37.394Z,14.90
2017-11-13T02:16:05.624Z,14.90
2017-11-13T02:18:34.083Z,14.00
2017-11-13T02:21:04.452Z,15.00
2017-11-13T02:23:35.477Z,14.90
2017-11-13T02:26:07.783Z,16.10
2017-11-13T02:28:44.231Z,16.00
2017-11-13T02:31:15.947Z,15.40
2017-11-13T02:36:30.602Z,15.70
2017-11-13T02:57:42.389Z,17.60
2017-11-13T03:09:33.295Z,16.70
2017-11-13T03:50:28.456Z,16.10
2017-11-13T04:39:44.765Z,17.10
2017-11-13T05:19:51.165Z,16.90
2017-11-13T05:29:23.033Z,15.00
2017-11-13T05:32:42.105Z,14.50
2017-11-13T05:44:46.864Z,17.10
2017-11-13T05:47:51.245Z,18.50
2017-11-13T05:50:21.218Z,18.20
2017-11-13T10:11:00.784Z,18.60
2017-11-13T10:13:29.468Z,19.50
2017-11-13T10:16:27.051Z,19.40
2017-11-13T10:37:09.089Z,19.10
2017-11-13T10:46:16.551Z,16.40
2017-11-13T11:15:13.544Z,15.40
2017-11-13T11:17:53.743Z,16.00
2017-11-13T11:38:31.911Z,15.90
2017-11-13T11:41:03.178Z,15.80
2017-11-13T11:43:31.810Z,15.50
2017-11-13T11:46:09.077Z,16.10
2017-11-13T11:48:41.997Z,16.10
2017-11-13T11:57:39.919Z,17.20
2017-11-13T12:00:13.052Z,16.50
2017-11-13T12:02:48.111Z,15.40
2017-11-13T12:05:31.191Z,15.20
2017-11-13T12:08:02.918Z,16.50
2017-11-13T12:11:05.987Z,15.50
2017-11-13T12:16:51.663Z,16.80
2017-11-13T12:19:32.097Z,15.40
2017-11-13T12:22:00.849Z,14.40
2017-11-13T12:24:28.585Z,14.30
2017-11-13T12:26:56.250Z,16.10
2017-11-13T12:29:24.071Z,15.50
2017-11-13T12:31:53.043Z,15.30
2017-11-13T12:34:47.185Z,15.90
2017-11-13T12:40:23.716Z,15.50
2017-11-13T12:42:56.429Z,16.40
2017-11-13T12:59:29.144Z,15.10
2017-11-13T13:05:29.106Z,14.60
2017-11-13T13:07:56.925Z,13.60
2017-11-13T13:10:26.872Z,12.70
2017-11-13T13:12:54.685Z,12.70
2017-11-13T13:15:23.372Z,13.70
2017-11-13T13:17:52.182Z,15.70
2017-11-13T13:20:20.876Z,15.60
2017-11-13T13:22:48.948Z,16.50
2017-11-13T13:28:38.804Z,17.20
2017-11-13T13:31:06.754Z,16.20
2017-11-13T13:33:34.613Z,15.60
2017-11-13T13:36:18.458Z,15.70
2017-11-13T13:38:52.271Z,14.80
2017-11-13T13:51:53.561Z,14.00
2017-11-13T13:58:22.998Z,13.00
2017-11-13T14:00:50.872Z,15.50
2017-11-13T14:03:18.693Z,17.70
2017-11-13T14:05:47.456Z,18.10
2017-11-13T14:08:15.451Z,18.10
2017-11-13T14:10:43.300Z,18.60
2017-11-13T14:13:11.241Z,18.40
2017-11-13T14:15:39.183Z,19.00
2017-11-13T14:18:07.014Z,20.00
2017-11-13T14:20:34.889Z,20.80
2017-11-13T14:23:02.715Z,19.70
2017-11-13T14:25:30.605Z,19.00
2017-11-13T14:28:27.110Z,19.30
2017-11-13T14:30:55.193Z,18.60
2017-11-13T14:33:23.129Z,18.10
2017-11-13T14:35:51.099Z,19.60
2017-11-13T14:38:18.994Z,20.60
2017-11-13T14:40:48.051Z,20.90
2017-11-13T14:43:16.233Z,21.00
2017-11-13T14:45:44.065Z,20.90
2017-11-13T14:48:11.850Z,21.30
2017-11-13T14:50:39.618Z,21.60
2017-11-13T14:53:07.545Z,21.80
2017-11-13T14:55:35.372Z,21.90
2017-11-13T14:58:03.209Z,21.80
2017-11-13T15:00:31.158Z,22.00
2017-11-13T15:02:59.067Z,22.00
2017-11-13T15:05:27.780Z,22.10
2017-11-13T15:07:55.649Z,22.10
2017-11-13T15:10:23.469Z,22.10
2017-11-13T15:12:51.364Z,21.30
2017-11-13T15:15:19.103Z,21.00
2017-11-13T15:17:46.918Z,21.20
2017-11-13T15:20:14.747Z,21.40
2017-11-13T15:22:42.514Z,21.50
2017-11-13T15:25:10.401Z,21.30
2017-11-13T15:27:38.169Z,21.60
2017-11-13T15:30:13.286Z,20.60
2017-11-13T15:32:53.203Z,17.80
2017-11-13T16:00:10.692Z,20.10
2017-11-13T16:02:38.497Z,21.00
2017-11-13T16:05:06.373Z,21.50
2017-11-13T16:07:34.182Z,21.80
2017-11-13T16:10:02.042Z,21.90
2017-11-13T16:12:30.203Z,22.00
2017-11-13T16:14:58.211Z,22.00
2017-11-13T16:17:26.075Z,22.10
2017-11-13T16:19:53.936Z,22.20
2017-11-13T16:22:21.920Z,22.20
2017-11-13T16:24:49.764Z,22.20
2017-11-13T16:27:17.567Z,22.00
2017-11-13T16:29:46.248Z,21.50
2017-11-13T16:32:14.949Z,21.80
2017-11-13T16:34:43.576Z,22.00
2017-11-13T16:37:11.416Z,22.00
2017-11-13T16:39:39.500Z,21.20
2017-11-13T16:42:07.317Z,21.50
2017-11-13T16:44:35.224Z,21.80
2017-11-13T16:47:03.153Z,22.00
2017-11-13T16:49:31.400Z,22.10
2017-11-13T16:51:59.287Z,22.10
2017-11-13T16:54:27.097Z,22.10
2017-11-13T16:56:54.987Z,22.20
2017-11-13T16:59:22.817Z,22.20
2017-11-13T17:01:50.729Z,22.20
2017-11-13T17:04:18.524Z,22.30
2017-11-13T17:06:46.343Z,21.00
2017-11-13T17:09:15.032Z,21.30
2017-11-13T17:11:44.285Z,21.20
2017-11-13T17:14:12.651Z,21.70
2017-11-13T17:16:40.462Z,21.80
2017-11-13T17:19:08.425Z,22.00
2017-11-13T17:21:36.318Z,22.10
2017-11-13T17:24:04.247Z,21.80
2017-11-13T17:26:32.149Z,22.10
2017-11-13T17:29:00.042Z,22.10
2017-11-13T17:31:27.949Z,22.20
2017-11-13T17:33:55.802Z,21.10
2017-11-13T17:36:26.693Z,21.20
2017-11-13T17:38:55.335Z,21.60
2017-11-13T17:41:23.205Z,21.60
2017-11-13T17:43:51.052Z,21.80
2017-11-13T17:46:19.013Z,22.10
2017-11-13T17:49:12.820Z,22.30
2017-11-13T17:51:40.809Z,22.30
2017-11-13T17:54:15.442Z,21.90
2017-11-13T17:56:44.093Z,22.00
2017-11-13T17:59:11.981Z,22.10
2017-11-13T18:01:39.833Z,21.00
2017-11-13T18:04:07.703Z,21.60
2017-11-13T18:06:35.608Z,21.80
2017-11-13T18:09:03.488Z,22.00
2017-11-13T18:11:31.289Z,21.90
2017-11-13T18:13:59.161Z,22.10
2017-11-13T18:16:27.339Z,21.70
2017-11-13T18:19:08.582Z,21.60
2017-11-13T18:21:36.733Z,21.00
2017-11-13T18:24:04.513Z,20.50
2017-11-13T18:26:32.381Z,20.80
2017-11-13T18:29:00.497Z,20.90
2017-11-13T18:31:36.080Z,20.10
2017-11-13T18:34:05.453Z,20.00
2017-11-13T18:36:35.383Z,20.60
2017-11-13T18:45:37.348Z,20.60
2017-11-13T18:48:10.155Z,21.10
2017-11-13T18:50:38.030Z,21.00
2017-11-13T18:53:05.867Z,21.30
2017-11-13T18:55:33.770Z,21.40
2017-11-13T18:58:01.602Z,21.00
2017-11-13T19:00:29.493Z,20.20
2017-11-13T19:02:59.293Z,19.50
2017-11-13T19:05:28.002Z,20.20
2017-11-13T19:07:56.481Z,18.40
2017-11-13T19:10:24.385Z,19.30
2017-11-13T19:12:52.249Z,20.20
2017-11-13T19:15:21.823Z,21.20
2017-11-13T19:17:50.459Z,21.40
2017-11-13T19:20:18.258Z,21.40
2017-11-13T19:22:46.300Z,21.30
2017-11-13T19:25:15.746Z,20.90
2017-11-13T19:27:44.123Z,20.70
2017-11-13T20:06:16.224Z,20.00
2017-11-13T20:08:44.936Z,17.30
2017-11-13T20:11:13.939Z,17.80
2017-11-13T20:13:41.858Z,18.40
2017-11-13T20:16:10.852Z,18.80
2017-11-13T20:18:40.178Z,19.40
2017-11-13T20:21:08.573Z,18.50
2017-11-13T20:23:37.466Z,18.30
2017-11-13T20:26:07.800Z,18.90
2017-11-13T20:28:36.525Z,19.30
2017-11-13T20:31:05.228Z,19.30
2017-11-13T20:33:34.531Z,19.60
2017-11-13T20:36:03.383Z,19.60
2017-11-13T20:38:32.877Z,19.30
2017-11-13T20:41:01.713Z,19.00
2017-11-13T20:43:38.380Z,19.10
2017-11-13T20:46:06.424Z,19.00
2017-11-13T20:48:34.401Z,18.80
2017-11-13T20:51:02.297Z,18.80
2017-11-13T20:53:30.210Z,18.50
2017-11-13T20:55:58.053Z,19.10
2017-11-13T20:58:27.877Z,19.60
2017-11-13T21:01:07.829Z,19.50
2017-11-13T21:03:36.909Z,19.50
2017-11-13T21:06:06.323Z,19.90
2017-11-13T21:08:34.257Z,19.20
2017-11-13T21:11:03.066Z,19.60
2017-11-13T21:13:31.051Z,19.90
2017-11-13T21:15:58.971Z,20.50
2017-11-13T21:18:27.157Z,20.90
2017-11-13T21:20:55.373Z,20.70
2017-11-13T21:23:27.263Z,20.70
2017-11-13T21:25:55.160Z,20.80
2017-11-13T21:28:23.007Z,20.80
2017-11-13T21:30:50.881Z,20.70
2017-11-13T21:33:18.774Z,20.60
2017-11-13T21:35:46.686Z,20.60
2017-11-13T21:38:15.324Z,20.90
2017-11-13T21:40:43.175Z,20.90
2017-11-13T21:43:11.062Z,20.90
2017-11-13T21:45:38.874Z,20.90
2017-11-13T21:48:06.849Z,20.80
2017-11-13T21:50:34.790Z,20.70
2017-11-13T21:53:03.966Z,20.70
2017-11-13T21:55:31.884Z,20.30
2017-11-13T21:57:59.722Z,19.80
2017-11-13T22:00:27.753Z,19.40
2017-11-13T22:02:55.616Z,19.60
2017-11-13T22:05:23.489Z,19.60
2017-11-13T22:07:51.382Z,19.70
2017-11-13T22:10:19.284Z,19.60
2017-11-13T22:12:47.188Z,19.50
2017-11-13T22:15:15.800Z,20.30
2017-11-13T22:17:43.752Z,20.20
2017-11-13T22:20:11.573Z,20.40
2017-11-13T22:22:39.462Z,20.50
2017-11-13T22:25:07.297Z,20.10
2017-11-13T22:27:35.228Z,20.10
2017-11-13T22:30:03.162Z,20.20
2017-11-13T22:32:31.006Z,20.40
2017-11-13T22:34:58.818Z,20.40
2017-11-13T22:37:26.770Z,20.40
2017-11-13T22:39:55.511Z,20.40
2017-11-13T22:42:23.318Z,20.50
2017-11-13T22:44:51.225Z,20.50
2017-11-13T22:47:19.141Z,20.60
2017-11-13T22:49:47.034Z,20.60
2017-11-13T22:52:14.912Z,20.60
2017-11-13T22:54:43.378Z,20.60
2017-11-13T22:57:11.248Z,20.60
2017-11-13T22:59:39.149Z,20.60
2017-11-13T23:02:08.209Z,20.50
2017-11-13T23:04:36.067Z,20.40
2017-11-13T23:07:03.986Z,20.50
2017-11-13T23:09:31.994Z,20.50
2017-11-13T23:11:59.853Z,20.40
2017-11-13T23:14:28.642Z,20.40
2017-11-13T23:16:56.522Z,20.10
2017-11-13T23:19:24.459Z,20.20
2017-11-13T23:21:53.079Z,20.40
2017-11-13T23:24:20.957Z,20.30
2017-11-13T23:26:48.828Z,20.40
2017-11-13T23:29:16.902Z,20.40
2017-11-13T23:31:44.769Z,20.40
2017-11-13T23:34:12.659Z,20.40
2017-11-13T23:36:40.664Z,20.30
2017-11-13T23:39:08.531Z,20.40
2017-11-13T23:41:36.330Z,20.30
2017-11-13T23:44:04.167Z,20.40
2017-11-13T23:46:31.980Z,20.30
2017-11-13T23:48:59.876Z,20.30
2017-11-13T23:51:27.853Z,20.30
2017-11-13T23:53:55.754Z,20.30
2017-11-13T23:56:23.611Z,20.30
2017-11-13T23:58:51.564Z,20.20
